createdAt,value
2023-08-02T00:01:08.944Z,17.25
2023-08-02T00:03:35.763Z,17.14
2023-08-02T00:06:03.378Z,17.09
2023-08-02T00:08:30.825Z,17.07
2023-08-02T00:10:57.838Z,17.11
2023-08-02T00:13:24.976Z,17.05
2023-08-02T00:15:53.718Z,17.04
2023-08-02T00:18:20.435Z,16.97
2023-08-02T00:20:48.431Z,16.95
2023-08-02T00:23:15.620Z,17.03
2023-08-02T00:25:42.341Z,16.99
2023-08-02T00:28:09.031Z,17.02
2023-08-02T00:30:45.948Z,17.00
2023-08-02T00:33:13.199Z,17.00
2023-08-02T00:35:52.042Z,17.03
2023-08-02T00:38:18.961Z,17.16
2023-08-02T00:40:45.707Z,17.17
2023-08-02T00:43:12.357Z,17.33
2023-08-02T00:45:39.167Z,17.22
2023-08-02T00:48:06.252Z,17.28
2023-08-02T00:50:34.813Z,17.32
2023-08-02T00:53:03.338Z,17.29
2023-08-02T00:55:30.097Z,17.35
2023-08-02T00:57:58.022Z,17.33
2023-08-02T01:00:24.991Z,17.26
2023-08-02T01:02:51.988Z,17.21
2023-08-02T01:05:23.107Z,17.34
2023-08-02T01:07:59.535Z,17.42
2023-08-02T01:10:59.414Z,17.40
2023-08-02T01:13:29.205Z,17.43
2023-08-02T01:15:57.357Z,17.38
2023-08-02T01:18:24.155Z,17.42
2023-08-02T01:20:50.879Z,17.37
2023-08-02T01:23:17.589Z,17.27
2023-08-02T01:25:47.239Z,17.33
2023-08-02T01:28:21.720Z,17.48
2023-08-02T01:30:50.305Z,17.38
2023-08-02T01:33:17.817Z,17.48
2023-08-02T01:35:44.572Z,17.51
2023-08-02T01:38:11.829Z,17.55
2023-08-02T01:40:38.570Z,17.43
2023-08-02T01:43:05.169Z,17.43
2023-08-02T01:45:31.828Z,17.36
2023-08-02T01:47:58.641Z,17.36
2023-08-02T01:50:27.336Z,17.32
2023-08-02T01:52:55.559Z,17.32
2023-08-02T01:55:22.224Z,17.32
2023-08-02T01:57:48.934Z,17.40
2023-08-02T02:00:16.056Z,17.43
2023-08-02T02:02:42.842Z,17.28
2023-08-02T02:05:09.706Z,17.29
2023-08-02T02:07:36.377Z,17.39
2023-08-02T02:10:03.138Z,17.36
2023-08-02T02:12:29.828Z,17.43
2023-08-02T02:14:56.540Z,17.23
2023-08-02T02:17:23.525Z,17.41
2023-08-02T02:19:50.198Z,17.42
2023-08-02T02:22:16.963Z,17.37
2023-08-02T02:24:43.688Z,17.46
2023-08-02T02:27:10.387Z,17.37
2023-08-02T02:29:37.066Z,17.47
2023-08-02T02:32:04.178Z,17.79
2023-08-02T02:34:31.141Z,17.37
2023-08-02T02:36:57.776Z,17.49
2023-08-02T02:39:25.534Z,17.47
2023-08-02T02:41:52.398Z,17.48
2023-08-02T02:44:19.022Z,17.36
2023-08-02T02:46:45.920Z,17.31
2023-08-02T02:49:12.874Z,17.33
2023-08-02T02:51:39.544Z,17.27
2023-08-02T02:54:06.227Z,17.26
2023-08-02T02:56:32.858Z,17.29
2023-08-02T02:58:59.562Z,17.23
2023-08-02T03:01:26.310Z,17.33
2023-08-02T03:03:53.084Z,17.34
2023-08-02T03:06:19.786Z,17.19
2023-08-02T03:08:46.684Z,17.28
2023-08-02T03:11:13.879Z,17.26
2023-08-02T03:13:40.984Z,17.29
2023-08-02T03:16:07.785Z,17.36
2023-08-02T03:18:34.623Z,17.35
2023-08-02T03:21:01.689Z,17.26
2023-08-02T03:23:28.472Z,17.36
2023-08-02T03:25:55.145Z,17.39
2023-08-02T03:28:21.901Z,17.44
2023-08-02T03:30:48.747Z,17.51
2023-08-02T03:33:15.508Z,17.52
2023-08-02T03:35:42.168Z,17.65
2023-08-02T03:38:08.804Z,17.62
2023-08-02T03:40:35.493Z,17.47
2023-08-02T03:43:02.170Z,17.44
2023-08-02T03:45:28.837Z,17.53
2023-08-02T03:47:55.550Z,17.41
2023-08-02T03:50:22.603Z,17.44
2023-08-02T03:52:50.219Z,17.46
2023-08-02T03:55:17.168Z,17.44
2023-08-02T03:57:43.796Z,17.38
2023-08-02T04:00:11.074Z,17.35
2023-08-02T04:02:37.822Z,17.35
2023-08-02T04:05:04.783Z,17.36
2023-08-02T04:07:31.440Z,17.30
2023-08-02T04:09:58.108Z,17.33
2023-08-02T04:12:25.170Z,17.38
2023-08-02T04:14:51.875Z,17.33
2023-08-02T04:17:18.614Z,17.31
2023-08-02T04:19:45.343Z,17.33
2023-08-02T04:22:12.038Z,17.41
2023-08-02T04:24:38.906Z,17.36
2023-08-02T04:27:05.865Z,17.37
2023-08-02T04:29:32.509Z,17.31
2023-08-02T04:31:59.411Z,17.26
2023-08-02T04:34:26.175Z,17.27
2023-08-02T04:36:53.700Z,17.32
2023-08-02T04:39:20.474Z,17.27
2023-08-02T04:41:47.135Z,17.25
2023-08-02T04:44:13.882Z,17.34
2023-08-02T04:46:41.193Z,17.35
2023-08-02T04:49:08.178Z,17.36
2023-08-02T04:51:37.794Z,17.44
2023-08-02T04:54:05.330Z,17.50
2023-08-02T04:56:32.773Z,17.50
2023-08-02T04:58:59.474Z,17.59
2023-08-02T05:01:26.326Z,17.75
2023-08-02T05:03:54.217Z,18.02
2023-08-02T05:06:21.001Z,18.02
2023-08-02T05:08:47.809Z,18.14
2023-08-02T05:11:14.626Z,18.07
2023-08-02T05:13:41.416Z,18.14
2023-08-02T05:16:15.682Z,18.07
2023-08-02T05:18:42.471Z,18.12
2023-08-02T05:21:13.617Z,18.00
2023-08-02T05:23:41.332Z,18.01
2023-08-02T05:26:08.683Z,18.04
2023-08-02T05:28:35.872Z,18.04
2023-08-02T05:31:03.169Z,18.09
2023-08-02T05:33:30.106Z,18.23
2023-08-02T05:35:56.858Z,18.35
2023-08-02T05:38:23.507Z,18.46
2023-08-02T05:40:50.214Z,18.54
2023-08-02T05:43:16.886Z,18.57
2023-08-02T05:45:43.627Z,18.75
2023-08-02T05:48:10.267Z,18.94
2023-08-02T05:50:36.927Z,19.05
2023-08-02T05:53:03.611Z,19.23
2023-08-02T05:55:30.362Z,19.41
2023-08-02T05:57:57.050Z,19.54
2023-08-02T06:00:23.810Z,19.54
2023-08-02T06:02:51.741Z,19.70
2023-08-02T06:05:18.453Z,19.60
2023-08-02T06:07:45.099Z,19.64
2023-08-02T06:10:11.765Z,19.69
2023-08-02T06:12:38.431Z,19.95
2023-08-02T06:15:05.727Z,20.15
2023-08-02T06:17:32.492Z,20.06
2023-08-02T06:20:00.059Z,20.18
2023-08-02T06:22:27.258Z,20.31
2023-08-02T06:24:53.970Z,20.50
2023-08-02T06:27:20.739Z,20.62
2023-08-02T06:29:47.417Z,20.75
2023-08-02T06:32:15.337Z,20.88
2023-08-02T06:34:42.022Z,20.90
2023-08-02T06:37:08.676Z,21.09
2023-08-02T06:39:35.298Z,21.13
2023-08-02T06:42:02.086Z,21.48
2023-08-02T06:44:28.849Z,21.56
2023-08-02T06:46:55.617Z,21.73
2023-08-02T06:49:22.327Z,21.75
2023-08-02T06:51:49.114Z,21.08
2023-08-02T06:54:15.892Z,21.17
2023-08-02T06:56:43.470Z,21.05
2023-08-02T06:59:10.150Z,20.97
2023-08-02T07:01:37.002Z,20.80
2023-08-02T07:04:03.692Z,20.96
2023-08-02T07:06:30.530Z,21.13
2023-08-02T07:08:57.986Z,21.36
2023-08-02T07:11:35.683Z,21.53
2023-08-02T07:14:11.362Z,21.57
2023-08-02T07:16:38.051Z,21.83
2023-08-02T07:19:04.874Z,22.07
2023-08-02T07:21:31.952Z,22.11
2023-08-02T07:23:58.713Z,21.87
2023-08-02T07:26:27.327Z,22.00
2023-08-02T07:28:53.959Z,22.27
2023-08-02T07:31:20.702Z,22.46
2023-08-02T07:33:48.246Z,22.48
2023-08-02T07:36:18.626Z,22.56
2023-08-02T07:38:46.231Z,22.65
2023-08-02T07:41:13.576Z,22.08
2023-08-02T07:43:40.601Z,22.53
2023-08-02T07:46:15.705Z,22.75
2023-08-02T07:48:42.513Z,22.51
2023-08-02T07:51:09.243Z,22.49
2023-08-02T07:53:37.633Z,22.45
2023-08-02T07:56:05.392Z,22.39
2023-08-02T07:58:32.198Z,22.80
2023-08-02T08:01:05.671Z,23.16
2023-08-02T08:03:32.377Z,23.34
2023-08-02T08:05:59.099Z,23.23
2023-08-02T08:08:25.957Z,23.42
2023-08-02T08:10:53.398Z,23.43
2023-08-02T08:13:20.225Z,23.56
2023-08-02T08:15:47.408Z,23.80
2023-08-02T08:18:14.117Z,24.03
2023-08-02T08:20:40.820Z,24.16
2023-08-02T08:23:07.558Z,24.18
2023-08-02T08:25:34.240Z,24.32
2023-08-02T08:28:00.897Z,24.17
2023-08-02T08:30:27.726Z,24.33
2023-08-02T08:32:54.684Z,24.68
2023-08-02T08:35:22.209Z,24.83
2023-08-02T08:37:52.992Z,24.56
2023-08-02T08:40:21.384Z,24.69
2023-08-02T08:42:55.057Z,24.79
2023-08-02T08:45:23.815Z,25.04
2023-08-02T08:47:51.642Z,25.23
2023-08-02T08:50:22.267Z,25.32
2023-08-02T08:52:52.780Z,25.55
2023-08-02T08:55:20.325Z,25.68
2023-08-02T08:57:47.231Z,25.68
2023-08-02T09:00:17.657Z,25.50
2023-08-02T09:02:45.480Z,25.60
2023-08-02T09:05:12.978Z,25.61
2023-08-02T09:07:39.789Z,25.65
2023-08-02T09:10:07.671Z,25.62
2023-08-02T09:12:46.030Z,25.92
2023-08-02T09:15:14.708Z,25.92
2023-08-02T09:17:53.306Z,25.63
2023-08-02T09:20:22.537Z,25.34
2023-08-02T09:22:49.605Z,25.52
2023-08-02T09:25:27.677Z,25.51
2023-08-02T09:27:57.130Z,25.93
2023-08-02T09:30:30.639Z,26.10
2023-08-02T09:33:02.414Z,26.08
2023-08-02T09:35:32.840Z,25.99
2023-08-02T09:37:59.641Z,25.91
2023-08-02T09:43:20.255Z,26.71
2023-08-02T09:45:47.120Z,27.07
2023-08-02T09:48:15.356Z,27.20
2023-08-02T09:51:04.232Z,27.23
2023-08-02T09:53:31.024Z,27.06
2023-08-02T09:56:01.952Z,26.93
2023-08-02T09:58:34.411Z,27.12
2023-08-02T10:01:02.470Z,26.98
2023-08-02T10:03:29.900Z,27.41
2023-08-02T10:05:59.478Z,27.17
2023-08-02T10:08:31.032Z,27.43
2023-08-02T10:11:00.195Z,27.55
2023-08-02T10:13:32.872Z,27.50
2023-08-02T10:16:00.180Z,27.42
2023-08-02T10:18:28.448Z,27.78
2023-08-02T10:20:56.691Z,27.67
2023-08-02T10:23:23.383Z,27.58
2023-08-02T10:25:50.867Z,27.54
2023-08-02T10:28:17.899Z,27.50
2023-08-02T10:30:45.134Z,27.60
2023-08-02T10:33:19.981Z,27.79
2023-08-02T10:36:01.526Z,27.74
2023-08-02T10:38:40.418Z,27.55
2023-08-02T10:41:09.945Z,27.67
2023-08-02T10:43:59.134Z,27.62
2023-08-02T10:46:33.788Z,27.75
2023-08-02T10:49:15.795Z,28.04
2023-08-02T10:51:43.460Z,28.28
2023-08-02T10:54:27.158Z,28.27
2023-08-02T10:56:54.583Z,28.62
2023-08-02T10:59:24.171Z,28.50
2023-08-02T11:02:03.342Z,28.46
2023-08-02T11:04:33.801Z,28.69
2023-08-02T11:07:19.439Z,28.44
2023-08-02T11:09:48.262Z,27.55
2023-08-02T11:12:20.137Z,27.90
2023-08-02T11:14:53.613Z,28.21
2023-08-02T11:22:23.056Z,28.84
2023-08-02T11:24:54.480Z,28.96
2023-08-02T11:27:23.348Z,29.27
2023-08-02T11:30:00.933Z,29.35
2023-08-02T11:32:28.898Z,29.66
2023-08-02T11:34:55.958Z,29.41
2023-08-02T11:37:23.551Z,29.62
2023-08-02T11:42:28.450Z,29.66
2023-08-02T11:44:59.600Z,29.66
2023-08-02T11:47:37.273Z,30.27
2023-08-02T11:50:04.272Z,29.68
2023-08-02T11:52:33.675Z,29.60
2023-08-02T11:55:01.915Z,29.49
2023-08-02T11:57:28.870Z,29.62
2023-08-02T11:59:57.551Z,29.24
2023-08-02T12:02:28.368Z,29.08
2023-08-02T12:04:55.975Z,29.04
2023-08-02T12:07:30.302Z,29.46
2023-08-02T12:09:57.832Z,29.67
2023-08-02T12:12:32.102Z,29.33
2023-08-02T12:14:59.854Z,29.79
2023-08-02T12:17:26.576Z,29.70
2023-08-02T12:19:53.573Z,30.01
2023-08-02T12:22:20.941Z,29.77
2023-08-02T12:25:05.709Z,30.03
2023-08-02T12:27:32.720Z,29.83
2023-08-02T12:30:17.104Z,30.23
2023-08-02T12:32:43.952Z,30.10
2023-08-02T12:35:13.137Z,29.87
2023-08-02T12:37:40.416Z,29.98
2023-08-02T12:40:07.935Z,29.80
2023-08-02T12:42:37.495Z,30.07
2023-08-02T12:45:16.483Z,29.90
2023-08-02T12:47:45.561Z,30.17
2023-08-02T12:50:12.335Z,29.56
2023-08-02T12:52:39.090Z,29.79
2023-08-02T12:55:06.861Z,29.94
2023-08-02T12:57:33.545Z,30.03
2023-08-02T13:00:00.853Z,29.82
2023-08-02T13:02:27.722Z,30.00
2023-08-02T13:04:54.498Z,29.38
2023-08-02T13:07:23.128Z,29.64
2023-08-02T13:09:51.814Z,29.85
2023-08-02T13:12:24.340Z,29.93
2023-08-02T13:14:59.263Z,29.98
2023-08-02T13:17:26.422Z,30.02
2023-08-02T13:19:53.148Z,29.98
2023-08-02T13:22:20.281Z,30.15
2023-08-02T13:24:47.013Z,30.10
2023-08-02T13:27:13.684Z,30.08
2023-08-02T13:29:40.603Z,30.22
2023-08-02T13:32:07.536Z,30.14
2023-08-02T13:34:34.209Z,29.93
2023-08-02T13:37:01.420Z,29.76
2023-08-02T13:39:28.090Z,29.97
2023-08-02T13:41:54.818Z,30.06
2023-08-02T13:44:21.455Z,30.07
2023-08-02T13:46:48.082Z,30.03
2023-08-02T13:49:14.847Z,30.16
2023-08-02T13:51:41.566Z,30.25
2023-08-02T13:54:08.343Z,30.38
2023-08-02T13:56:35.129Z,30.37
2023-08-02T13:59:04.261Z,30.06
2023-08-02T14:01:32.115Z,29.88
2023-08-02T14:03:58.907Z,29.89
2023-08-02T14:06:25.718Z,30.00
2023-08-02T14:08:52.476Z,29.91
2023-08-02T14:11:19.108Z,29.83
2023-08-02T14:13:45.790Z,29.93
2023-08-02T14:16:12.581Z,29.78
2023-08-02T14:18:39.361Z,29.76
2023-08-02T14:21:06.085Z,29.85
2023-08-02T14:23:33.596Z,30.10
2023-08-02T14:26:00.316Z,30.00
2023-08-02T14:28:27.002Z,29.92
2023-08-02T14:30:53.673Z,29.85
2023-08-02T14:33:20.362Z,29.70
2023-08-02T14:35:47.059Z,29.83
2023-08-02T14:38:13.730Z,30.00
2023-08-02T14:40:40.408Z,30.26
2023-08-02T14:43:07.073Z,30.28
2023-08-02T14:45:33.724Z,30.18
2023-08-02T14:48:00.559Z,30.27
2023-08-02T14:50:28.843Z,30.24
2023-08-02T14:52:55.507Z,30.31
2023-08-02T14:55:22.287Z,30.39
2023-08-02T14:57:49.010Z,30.45
2023-08-02T15:00:15.852Z,30.52
2023-08-02T15:02:42.795Z,30.42
2023-08-02T15:05:09.735Z,30.52
2023-08-02T15:07:36.679Z,30.31
2023-08-02T15:10:03.876Z,30.37
2023-08-02T15:12:30.562Z,30.39
2023-08-02T15:14:57.320Z,30.09
2023-08-02T15:17:24.364Z,30.28
2023-08-02T15:19:50.992Z,30.78
2023-08-02T15:22:17.672Z,30.53
2023-08-02T15:24:44.367Z,30.51
2023-08-02T15:27:11.100Z,30.35
2023-08-02T15:29:37.774Z,30.27
2023-08-02T15:32:04.819Z,30.29
2023-08-02T15:34:31.547Z,30.18
2023-08-02T15:36:58.225Z,29.96
2023-08-02T15:39:24.870Z,29.90
2023-08-02T15:41:51.518Z,29.96
2023-08-02T15:44:19.209Z,29.71
2023-08-02T15:46:46.203Z,29.79
2023-08-02T15:49:13.153Z,29.64
2023-08-02T15:51:39.908Z,29.59
2023-08-02T15:54:06.645Z,29.39
2023-08-02T15:56:33.335Z,29.21
2023-08-02T15:59:00.052Z,29.20
2023-08-02T16:01:28.033Z,29.31
2023-08-02T16:03:54.680Z,29.21
2023-08-02T16:06:21.427Z,29.22
2023-08-02T16:08:48.205Z,29.11
2023-08-02T16:11:15.014Z,29.14
2023-08-02T16:13:41.746Z,29.11
2023-08-02T16:16:08.476Z,28.99
2023-08-02T16:18:35.207Z,28.95
2023-08-02T16:21:01.956Z,28.93
2023-08-02T16:23:28.678Z,28.87
2023-08-02T16:25:55.437Z,28.79
2023-08-02T16:28:22.270Z,28.78
2023-08-02T16:30:48.972Z,28.66
2023-08-02T16:33:16.312Z,28.68
2023-08-02T16:35:45.356Z,28.65
2023-08-02T16:38:15.628Z,28.65
2023-08-02T16:40:45.395Z,28.54
2023-08-02T16:43:13.347Z,28.56
2023-08-02T16:45:43.201Z,28.51
2023-08-02T16:48:10.110Z,28.63
2023-08-02T16:50:37.452Z,28.52
2023-08-02T16:53:04.185Z,28.41
2023-08-02T16:55:30.919Z,28.37
2023-08-02T16:57:57.605Z,28.42
2023-08-02T17:00:24.364Z,28.36
2023-08-02T17:02:51.119Z,28.30
2023-08-02T17:05:17.883Z,28.16
2023-08-02T17:07:45.109Z,27.96
2023-08-02T17:10:12.046Z,28.04
2023-08-02T17:12:38.780Z,27.99
2023-08-02T17:15:06.089Z,28.03
2023-08-02T17:17:33.148Z,27.70
2023-08-02T17:19:59.889Z,27.65
2023-08-02T17:22:26.851Z,27.89
2023-08-02T17:24:53.589Z,27.93
2023-08-02T17:27:20.351Z,27.98
2023-08-02T17:29:47.041Z,27.87
2023-08-02T17:32:13.796Z,27.65
2023-08-02T17:34:40.551Z,27.71
2023-08-02T17:37:07.269Z,27.52
2023-08-02T17:39:33.971Z,27.40
2023-08-02T17:42:03.012Z,27.16
2023-08-02T17:44:29.796Z,27.04
2023-08-02T17:46:57.560Z,27.01
2023-08-02T17:49:24.231Z,27.17
2023-08-02T17:51:50.914Z,27.07
2023-08-02T17:54:17.653Z,26.81
2023-08-02T17:56:44.502Z,26.55
2023-08-02T17:59:12.159Z,26.49
2023-08-02T18:01:40.105Z,26.26
2023-08-02T18:04:11.954Z,26.16
2023-08-02T18:06:38.661Z,26.10
2023-08-02T18:09:05.452Z,26.03
2023-08-02T18:11:32.067Z,25.91
2023-08-02T18:13:58.722Z,25.89
2023-08-02T18:16:27.573Z,25.86
2023-08-02T18:18:54.341Z,25.81
2023-08-02T18:21:21.008Z,25.58
2023-08-02T18:23:47.648Z,25.49
2023-08-02T18:26:15.507Z,25.56
2023-08-02T18:28:42.940Z,25.56
2023-08-02T18:31:10.147Z,25.32
2023-08-02T18:33:38.778Z,25.47
2023-08-02T18:36:09.811Z,25.33
2023-08-02T18:38:37.324Z,25.32
2023-08-02T18:41:05.246Z,25.07
2023-08-02T18:43:33.462Z,24.99
2023-08-02T18:46:01.160Z,25.07
2023-08-02T18:48:28.190Z,24.85
2023-08-02T18:50:55.044Z,24.89
2023-08-02T18:53:21.791Z,24.70
2023-08-02T18:55:48.570Z,24.65
2023-08-02T18:58:15.350Z,24.61
2023-08-02T19:00:45.418Z,24.69
2023-08-02T19:03:12.137Z,24.67
2023-08-02T19:05:38.889Z,24.65
2023-08-02T19:08:06.244Z,24.65
2023-08-02T19:10:35.709Z,24.54
2023-08-02T19:13:04.864Z,24.51
2023-08-02T19:15:31.651Z,24.47
2023-08-02T19:17:58.510Z,24.47
2023-08-02T19:20:27.697Z,24.41
2023-08-02T19:22:54.392Z,24.25
2023-08-02T19:25:23.403Z,24.27
2023-08-02T19:27:50.176Z,24.28
2023-08-02T19:30:25.007Z,24.11
2023-08-02T19:32:51.842Z,24.13
2023-08-02T19:35:21.825Z,24.04
2023-08-02T19:37:48.601Z,24.09
2023-08-02T19:40:15.327Z,23.99
2023-08-02T19:42:45.303Z,23.95
2023-08-02T19:45:12.075Z,23.85
2023-08-02T19:47:39.346Z,23.91
2023-08-02T19:52:34.493Z,23.92
2023-08-02T19:55:02.136Z,23.73
2023-08-02T19:57:30.373Z,23.74
2023-08-02T19:59:59.963Z,23.70
2023-08-02T20:02:26.788Z,23.59
2023-08-02T20:04:53.760Z,23.65
2023-08-02T20:07:23.696Z,23.66
2023-08-02T20:09:54.154Z,23.46
2023-08-02T20:12:21.463Z,23.47
2023-08-02T20:14:52.301Z,23.46
2023-08-02T20:17:19.722Z,23.30
2023-08-02T20:19:47.816Z,23.33
2023-08-02T20:22:16.633Z,23.25
2023-08-02T20:24:45.126Z,23.21
2023-08-02T20:27:12.469Z,23.20
2023-08-02T20:29:43.566Z,23.27
2023-08-02T20:32:20.848Z,23.13
2023-08-02T20:34:48.514Z,23.12
2023-08-02T20:37:15.141Z,23.04
2023-08-02T20:39:45.201Z,23.10
2023-08-02T20:42:12.215Z,23.03
2023-08-02T20:44:39.016Z,22.85
2023-08-02T20:47:13.930Z,22.82
2023-08-02T20:49:40.644Z,22.85
2023-08-02T20:52:10.544Z,22.79
2023-08-02T20:54:42.565Z,22.76
2023-08-02T20:57:10.565Z,22.66
2023-08-02T20:59:38.307Z,22.81
2023-08-02T21:02:21.355Z,22.69
2023-08-02T21:04:50.191Z,22.51
2023-08-02T21:07:17.198Z,22.71
2023-08-02T21:09:43.931Z,22.66
2023-08-02T21:12:10.643Z,22.64
2023-08-02T21:14:37.405Z,22.57
2023-08-02T21:17:11.916Z,22.60
2023-08-02T21:19:38.764Z,22.56
2023-08-02T21:22:06.369Z,22.68
2023-08-02T21:24:33.133Z,22.68
2023-08-02T21:27:00.488Z,22.56
2023-08-02T21:29:27.268Z,22.69
2023-08-02T21:31:54.147Z,22.72
2023-08-02T21:34:20.877Z,22.70
2023-08-02T21:36:47.612Z,22.54
2023-08-02T21:39:15.374Z,22.46
2023-08-02T21:41:42.138Z,22.63
2023-08-02T21:44:10.680Z,22.64
2023-08-02T21:46:37.571Z,22.53
2023-08-02T21:49:04.338Z,22.38
2023-08-02T21:51:31.529Z,22.41
2023-08-02T21:53:58.218Z,22.38
2023-08-02T21:56:26.090Z,22.39
2023-08-02T21:58:58.768Z,22.39
2023-08-02T22:01:26.933Z,22.34
2023-08-02T22:03:54.192Z,22.11
2023-08-02T22:06:29.408Z,22.22
2023-08-02T22:08:59.029Z,22.11
2023-08-02T22:11:25.846Z,22.06
2023-08-02T22:13:52.765Z,22.05
2023-08-02T22:16:20.090Z,22.03
2023-08-02T22:18:46.893Z,22.04
2023-08-02T22:21:14.120Z,21.97
2023-08-02T22:23:43.644Z,22.04
2023-08-02T22:26:11.115Z,22.04
2023-08-02T22:28:37.784Z,21.98
2023-08-02T22:31:04.452Z,21.90
2023-08-02T22:33:31.156Z,22.01
2023-08-02T22:35:58.667Z,22.01
2023-08-02T22:38:33.767Z,22.06
2023-08-02T22:41:12.148Z,21.89
2023-08-02T22:43:39.002Z,22.01
2023-08-02T22:46:05.816Z,21.85
2023-08-02T22:51:03.489Z,21.78
2023-08-02T22:53:30.221Z,21.67
2023-08-02T22:55:57.083Z,21.57
2023-08-02T22:58:24.356Z,21.73
2023-08-02T23:00:51.054Z,21.52
2023-08-02T23:03:38.049Z,21.44
2023-08-02T23:06:05.690Z,21.58
2023-08-02T23:08:37.686Z,21.34
2023-08-02T23:11:05.280Z,21.24
2023-08-02T23:13:32.371Z,21.21
2023-08-02T23:15:59.137Z,21.16
2023-08-02T23:18:25.839Z,21.06
2023-08-02T23:20:53.893Z,21.01
2023-08-02T23:23:29.027Z,20.93
2023-08-02T23:25:55.606Z,20.86
2023-08-02T23:28:22.237Z,20.82
2023-08-02T23:30:49.152Z,20.60
2023-08-02T23:33:15.861Z,20.49
2023-08-02T23:35:42.522Z,20.50
2023-08-02T23:38:09.258Z,20.46
2023-08-02T23:40:37.897Z,20.56
2023-08-02T23:43:04.764Z,20.53
2023-08-02T23:45:31.653Z,20.53
2023-08-02T23:47:58.432Z,20.53
2023-08-02T23:50:25.220Z,20.55
2023-08-02T23:52:51.917Z,20.46
2023-08-02T23:55:18.663Z,20.64
2023-08-02T23:57:45.344Z,20.61
